Aeroporto :
LOGIN :

Iscrizione | Disclaimer

   EN    FR    IT 

 










Sommario :    VFR   VFR Marginale   IFR   IFR Intensivo   IFR Molto Intensivo
Visibilità : 
Base nubi : 
>= 8 km
>= 3000ft
5 / 8 km
1000 / 3000 ft
1500m / 5 km
500 / 1000 ft
800 / 1500m
200 / 500 ft
< 800m
< 200 ft
Simboli :   Temporali  Nebbia  Neve Forte  Precipitazioni Forti  Vento > 20 kt
SIGMETs :   Varie  Temporali  Ghiacco  Turbolenza  Onda orograficha  Ceneri Vulcaniche







- Altitudine del aeroporto : 13 ft
- Codice IATA : LYX
- Carte del aeroporto


EGMD - Lydd

ULTIMO METAR :
  • 180620Z AUTO 11004KT 9999 FEW016/// SCT030/// BKN042/// 14/14 Q1003

METARs OBSOLETI :
  • 180550Z AUTO 34006KT 5000 -RA FEW005/// BKN014/// BKN031/// 14/13 Q1004
  • 180520Z AUTO 27005KT 3800 -DZ BKN010/// BKN019/// BKN035/// 15/15 Q1004
  • 180450Z AUTO 23006KT 9999 -RA FEW026/// OVC049/// 15/14 Q1004
  • 180420Z AUTO 22008KT 9999 -RA FEW014/// SCT023/// 16/15 Q1004
  • 180350Z AUTO 21008KT 9999 -RA FEW021/// BKN026/// BKN032/// 16/14 Q1004

TAF AMD TAF EGMD
Valido dal 18 a 06 ore il 18 a 15 ore UTC


180539Z 1806/1815 VRB04KT 9999 SCT025
TEMPO 1806/1807 4000 -RADZ BKN009
BECMG 1809/1812 24018G28KT
PROB30
TEMPO 1810/1815 7000 SHRA
ATIS : +44 1797 322 422
Nessun NOTAM noto per questo aeroporto.



MetMap, La meteo Aeronautica in un colpo d'occhio ! - Copyright ORBIFLY Dicembre 2007 - Disclaimer

ORBIFLY MET'MAP TEAM :

Programmazione e sviluppo : Alexandra Zaïnal
Concezione e sviluppo : Baudouin d'Aumeries
Co-Programmazione e sviluppo : Marc-Olivier Méhu
Supporto tecnico e logistico : Manuel Goepfert
Aiuto per la traduzione : Arnaldo La Scala

Contatto : metmap@orbifly.com




FONTI E CREDITI :

   NOAA